Brazoria County Airport
KLBX : rendu visible

Aérodrome :











RETROUVEZ-NOUS SUR...

 
LOGIN :

S'inscrire | Disclaimer

   EN    FR    IT 

 









Légende :    VFR   VFR Marginal   IFR   IFR Intensif   IFR Très Intensif
Visi : 
Plafond : 
>= 8 km
>= 3000ft
5 à 8 km
1000 à 3000 ft
1500m à 5 km
500 à 1000 ft
800 à 1500m
200 à 500 ft
< 800m
< 200 ft
Symboles :   Orages  Brouillard  Fortes neiges  Fortes précipitations  Vent > 20 kt






- Altitude de l'aérodrome : 25 ft


KLBX - Brazoria County

DERNIER METAR :
  • 040753Z AUTO 00000KT 9SM CLR 23/22 A2990 RMK AO2 SLP123 T02280222

METARs EXPIRÉS :
  • 040653Z AUTO 00000KT 10SM CLR 23/22 A2990 RMK AO2 SLP125 T02280222
  • 040553Z AUTO 00000KT 9SM CLR 23/22 A2992 RMK AO2 SLP131 T02280222 10283 20228 403110228 58006

TAF KLBX
Valide du 04 à 06h jusqu'au 05 à 06h UTC


040520Z 0406/0506 14003KT P6SM FEW250
FM041000 VRB02KT P6SM FEW020
TEMPO 0411/0413 4SM BR SCT015
FM041500 17005KT P6SM SCT025 SCT120
FM041800 17007KT P6SM VCTS FEW025 SCT035CB
FM042300 16006KT P6SM FEW025 SCT250
FIR KZHU / Amérique du Nord



MET'MAP, la Météo Aéronautique d'un coup d'oeil ! - Copyright ORBIFLY Décembre 2007 - Disclaimer

ORBIFLY MET'MAP TEAM :

Programmation & Développement : Alexandra Zaïnal
Sur une idée originale de : Baudouin d'Aumeries
Assistance à la programmation : Marc-Olivier Méhu
Soutien technique & logistique : Manuel Goepfert

Contact : metmap@orbifly.com




SOURCES & CREDITS :

   NOAA       Earth
Advisory